sensor_id;sensor_type;location;lat;lon;timestamp;temperature;humidity
31729;DHT22;18309;43.658;1.312;2023-07-13T00:01:27;24.50;98.60
31729;DHT22;18309;43.658;1.312;2023-07-13T00:03:53;24.50;98.60
31729;DHT22;18309;43.658;1.312;2023-07-13T00:06:18;24.40;98.60
31729;DHT22;18309;43.658;1.312;2023-07-13T00:08:45;24.40;98.50
31729;DHT22;18309;43.658;1.312;2023-07-13T00:11:13;24.40;98.50
31729;DHT22;18309;43.658;1.312;2023-07-13T00:13:40;24.40;98.50
31729;DHT22;18309;43.658;1.312;2023-07-13T00:16:07;24.40;98.40
31729;DHT22;18309;43.658;1.312;2023-07-13T00:18:33;24.40;98.60
31729;DHT22;18309;43.658;1.312;2023-07-13T00:20:58;24.30;98.30
31729;DHT22;18309;43.658;1.312;2023-07-13T00:23:39;24.30;98.50
31729;DHT22;18309;43.658;1.312;2023-07-13T00:26:06;24.30;98.60
31729;DHT22;18309;43.658;1.312;2023-07-13T00:28:33;24.30;98.60
31729;DHT22;18309;43.658;1.312;2023-07-13T00:30:59;24.30;98.70
31729;DHT22;18309;43.658;1.312;2023-07-13T00:33:26;24.20;98.70
31729;DHT22;18309;43.658;1.312;2023-07-13T00:35:54;24.20;98.50
31729;DHT22;18309;43.658;1.312;2023-07-13T00:38:20;24.20;98.50
31729;DHT22;18309;43.658;1.312;2023-07-13T00:40:46;24.20;98.30
31729;DHT22;18309;43.658;1.312;2023-07-13T00:43:19;24.20;98.30
31729;DHT22;18309;43.658;1.312;2023-07-13T00:48:12;24.10;98.30
31729;DHT22;18309;43.658;1.312;2023-07-13T00:50:40;24.10;98.20
31729;DHT22;18309;43.658;1.312;2023-07-13T00:53:07;24.10;98.10
31729;DHT22;18309;43.658;1.312;2023-07-13T00:55:34;24.10;98.00
31729;DHT22;18309;43.658;1.312;2023-07-13T00:58:01;24.10;98.00
31729;DHT22;18309;43.658;1.312;2023-07-13T01:00:29;24.10;97.90
31729;DHT22;18309;43.658;1.312;2023-07-13T01:02:55;24.10;98.00
31729;DHT22;18309;43.658;1.312;2023-07-13T01:05:22;24.10;98.10
31729;DHT22;18309;43.658;1.312;2023-07-13T01:07:50;24.10;98.20
31729;DHT22;18309;43.658;1.312;2023-07-13T01:10:16;24.00;98.20
31729;DHT22;18309;43.658;1.312;2023-07-13T01:12:42;24.00;98.30
31729;DHT22;18309;43.658;1.312;2023-07-13T01:15:43;24.00;98.20
31729;DHT22;18309;43.658;1.312;2023-07-13T01:18:31;24.00;98.40
31729;DHT22;18309;43.658;1.312;2023-07-13T01:21:04;24.00;98.40
31729;DHT22;18309;43.658;1.312;2023-07-13T01:23:30;23.90;98.30
31729;DHT22;18309;43.658;1.312;2023-07-13T01:25:57;23.90;98.20
31729;DHT22;18309;43.658;1.312;2023-07-13T01:28:25;24.00;98.10
31729;DHT22;18309;43.658;1.312;2023-07-13T01:30:54;23.90;98.10
31729;DHT22;18309;43.658;1.312;2023-07-13T01:33:20;23.90;98.20
31729;DHT22;18309;43.658;1.312;2023-07-13T01:35:46;23.90;98.00
31729;DHT22;18309;43.658;1.312;2023-07-13T01:38:15;23.80;97.90
31729;DHT22;18309;43.658;1.312;2023-07-13T01:40:41;23.80;97.90
31729;DHT22;18309;43.658;1.312;2023-07-13T01:43:07;23.80;97.80
31729;DHT22;18309;43.658;1.312;2023-07-13T01:45:33;23.70;97.70
31729;DHT22;18309;43.658;1.312;2023-07-13T01:47:59;23.70;97.60
31729;DHT22;18309;43.658;1.312;2023-07-13T01:50:25;23.70;97.40
31729;DHT22;18309;43.658;1.312;2023-07-13T01:52:51;23.70;97.40
31729;DHT22;18309;43.658;1.312;2023-07-13T01:55:17;23.60;97.30
31729;DHT22;18309;43.658;1.312;2023-07-13T01:57:43;23.60;97.20
31729;DHT22;18309;43.658;1.312;2023-07-13T02:00:10;23.60;97.10
31729;DHT22;18309;43.658;1.312;2023-07-13T02:02:36;23.60;97.00
31729;DHT22;18309;43.658;1.312;2023-07-13T02:05:02;23.60;96.90
31729;DHT22;18309;43.658;1.312;2023-07-13T02:07:28;23.50;96.70
31729;DHT22;18309;43.658;1.312;2023-07-13T02:09:53;23.50;96.70
31729;DHT22;18309;43.658;1.312;2023-07-13T02:12:19;23.50;96.60
31729;DHT22;18309;43.658;1.312;2023-07-13T02:14:45;23.50;96.40
31729;DHT22;18309;43.658;1.312;2023-07-13T02:17:10;23.40;96.20
31729;DHT22;18309;43.658;1.312;2023-07-13T02:19:36;23.40;96.00
31729;DHT22;18309;43.658;1.312;2023-07-13T02:22:02;23.40;96.00
31729;DHT22;18309;43.658;1.312;2023-07-13T02:24:28;23.40;95.80
31729;DHT22;18309;43.658;1.312;2023-07-13T02:26:54;23.30;95.50
31729;DHT22;18309;43.658;1.312;2023-07-13T02:29:20;23.30;95.20
31729;DHT22;18309;43.658;1.312;2023-07-13T02:31:45;23.20;95.00
31729;DHT22;18309;43.658;1.312;2023-07-13T02:34:11;23.20;95.10
31729;DHT22;18309;43.658;1.312;2023-07-13T02:36:37;23.20;95.20
31729;DHT22;18309;43.658;1.312;2023-07-13T02:39:04;23.20;95.00
31729;DHT22;18309;43.658;1.312;2023-07-13T02:41:30;23.20;95.00
31729;DHT22;18309;43.658;1.312;2023-07-13T02:43:58;23.10;95.00
31729;DHT22;18309;43.658;1.312;2023-07-13T02:46:35;23.10;95.10
31729;DHT22;18309;43.658;1.312;2023-07-13T02:49:02;23.10;95.10
31729;DHT22;18309;43.658;1.312;2023-07-13T02:51:27;23.00;95.10
31729;DHT22;18309;43.658;1.312;2023-07-13T02:53:54;23.00;95.20
31729;DHT22;18309;43.658;1.312;2023-07-13T02:56:24;23.00;95.40
31729;DHT22;18309;43.658;1.312;2023-07-13T02:58:50;23.00;95.40
31729;DHT22;18309;43.658;1.312;2023-07-13T03:01:16;22.90;95.30
31729;DHT22;18309;43.658;1.312;2023-07-13T03:03:46;22.90;95.30
31729;DHT22;18309;43.658;1.312;2023-07-13T03:06:13;22.90;95.10
31729;DHT22;18309;43.658;1.312;2023-07-13T03:08:39;22.80;94.90
31729;DHT22;18309;43.658;1.312;2023-07-13T03:11:11;22.80;95.00
31729;DHT22;18309;43.658;1.312;2023-07-13T03:13:39;22.80;94.90
31729;DHT22;18309;43.658;1.312;2023-07-13T03:16:05;22.80;95.30
31729;DHT22;18309;43.658;1.312;2023-07-13T03:18:31;22.70;95.00
31729;DHT22;18309;43.658;1.312;2023-07-13T03:20:57;22.70;95.10
31729;DHT22;18309;43.658;1.312;2023-07-13T03:23:23;22.70;95.20
31729;DHT22;18309;43.658;1.312;2023-07-13T03:25:50;22.70;95.10
31729;DHT22;18309;43.658;1.312;2023-07-13T03:28:16;22.60;94.90
31729;DHT22;18309;43.658;1.312;2023-07-13T03:30:42;22.60;94.70
31729;DHT22;18309;43.658;1.312;2023-07-13T03:33:08;22.50;94.70
31729;DHT22;18309;43.658;1.312;2023-07-13T03:35:34;22.50;94.70
31729;DHT22;18309;43.658;1.312;2023-07-13T03:38:00;22.50;94.70
31729;DHT22;18309;43.658;1.312;2023-07-13T03:40:27;22.50;94.70
31729;DHT22;18309;43.658;1.312;2023-07-13T03:42:53;22.50;94.80
31729;DHT22;18309;43.658;1.312;2023-07-13T03:45:19;22.40;94.80
31729;DHT22;18309;43.658;1.312;2023-07-13T03:47:45;22.40;94.80
31729;DHT22;18309;43.658;1.312;2023-07-13T03:50:11;22.40;94.80
31729;DHT22;18309;43.658;1.312;2023-07-13T03:52:37;22.40;94.70
31729;DHT22;18309;43.658;1.312;2023-07-13T03:55:03;22.40;95.00
31729;DHT22;18309;43.658;1.312;2023-07-13T03:57:29;22.40;94.70
31729;DHT22;18309;43.658;1.312;2023-07-13T03:59:55;22.30;94.70
31729;DHT22;18309;43.658;1.312;2023-07-13T04:02:20;22.30;94.70
31729;DHT22;18309;43.658;1.312;2023-07-13T04:04:46;22.20;94.70
31729;DHT22;18309;43.658;1.312;2023-07-13T04:07:12;22.20;94.70
31729;DHT22;18309;43.658;1.312;2023-07-13T04:09:38;22.20;94.70
31729;DHT22;18309;43.658;1.312;2023-07-13T04:12:04;22.20;94.70
31729;DHT22;18309;43.658;1.312;2023-07-13T04:14:30;22.20;94.70
31729;DHT22;18309;43.658;1.312;2023-07-13T04:16:55;22.20;94.70
31729;DHT22;18309;43.658;1.312;2023-07-13T04:19:21;22.10;94.70
31729;DHT22;18309;43.658;1.312;2023-07-13T04:21:47;22.10;94.80
31729;DHT22;18309;43.658;1.312;2023-07-13T04:24:13;22.00;94.90
31729;DHT22;18309;43.658;1.312;2023-07-13T04:26:39;22.00;95.00
31729;DHT22;18309;43.658;1.312;2023-07-13T04:29:05;22.00;94.90
31729;DHT22;18309;43.658;1.312;2023-07-13T04:31:31;22.00;95.00
31729;DHT22;18309;43.658;1.312;2023-07-13T04:33:57;21.90;95.00
31729;DHT22;18309;43.658;1.312;2023-07-13T04:36:23;21.90;95.00
31729;DHT22;18309;43.658;1.312;2023-07-13T04:38:51;21.90;95.10
31729;DHT22;18309;43.658;1.312;2023-07-13T04:41:16;21.90;95.20
31729;DHT22;18309;43.658;1.312;2023-07-13T04:43:42;21.80;95.20
31729;DHT22;18309;43.658;1.312;2023-07-13T04:46:13;21.80;95.30
31729;DHT22;18309;43.658;1.312;2023-07-13T04:48:39;21.80;95.30
31729;DHT22;18309;43.658;1.312;2023-07-13T04:51:05;21.80;95.20
31729;DHT22;18309;43.658;1.312;2023-07-13T04:53:32;21.80;95.00
31729;DHT22;18309;43.658;1.312;2023-07-13T04:56:00;21.70;95.00
31729;DHT22;18309;43.658;1.312;2023-07-13T04:58:26;21.70;94.90
31729;DHT22;18309;43.658;1.312;2023-07-13T05:00:53;21.70;95.10
31729;DHT22;18309;43.658;1.312;2023-07-13T05:03:19;21.70;95.10
31729;DHT22;18309;43.658;1.312;2023-07-13T05:05:58;21.70;95.10
31729;DHT22;18309;43.658;1.312;2023-07-13T05:08:23;21.70;95.00
31729;DHT22;18309;43.658;1.312;2023-07-13T05:10:50;21.70;95.10
31729;DHT22;18309;43.658;1.312;2023-07-13T05:13:16;21.70;95.20
31729;DHT22;18309;43.658;1.312;2023-07-13T05:15:42;21.70;95.20
31729;DHT22;18309;43.658;1.312;2023-07-13T05:18:07;21.70;95.10
31729;DHT22;18309;43.658;1.312;2023-07-13T05:20:33;21.60;95.10
31729;DHT22;18309;43.658;1.312;2023-07-13T05:22:59;21.60;95.10
31729;DHT22;18309;43.658;1.312;2023-07-13T05:25:25;21.60;95.10
31729;DHT22;18309;43.658;1.312;2023-07-13T05:27:50;21.60;95.10
31729;DHT22;18309;43.658;1.312;2023-07-13T05:30:16;21.60;95.00
31729;DHT22;18309;43.658;1.312;2023-07-13T05:32:42;21.50;94.90
31729;DHT22;18309;43.658;1.312;2023-07-13T05:35:08;21.50;94.90
31729;DHT22;18309;43.658;1.312;2023-07-13T05:37:34;21.50;95.00
31729;DHT22;18309;43.658;1.312;2023-07-13T05:39:59;21.50;95.00
31729;DHT22;18309;43.658;1.312;2023-07-13T05:42:25;21.50;94.90
31729;DHT22;18309;43.658;1.312;2023-07-13T05:44:51;21.50;94.90
31729;DHT22;18309;43.658;1.312;2023-07-13T05:47:17;21.50;94.90
31729;DHT22;18309;43.658;1.312;2023-07-13T05:49:42;21.50;95.00
31729;DHT22;18309;43.658;1.312;2023-07-13T05:52:08;21.50;95.00
31729;DHT22;18309;43.658;1.312;2023-07-13T05:54:35;21.50;95.00
31729;DHT22;18309;43.658;1.312;2023-07-13T05:57:01;21.50;95.10
31729;DHT22;18309;43.658;1.312;2023-07-13T05:59:26;21.50;95.10
31729;DHT22;18309;43.658;1.312;2023-07-13T06:01:52;21.50;95.10
31729;DHT22;18309;43.658;1.312;2023-07-13T06:04:19;21.40;95.20
31729;DHT22;18309;43.658;1.312;2023-07-13T06:06:45;21.50;95.20
31729;DHT22;18309;43.658;1.312;2023-07-13T06:09:11;21.50;95.30
31729;DHT22;18309;43.658;1.312;2023-07-13T06:11:36;21.50;95.30
31729;DHT22;18309;43.658;1.312;2023-07-13T06:14:02;21.40;95.30
31729;DHT22;18309;43.658;1.312;2023-07-13T06:16:29;21.50;95.40
31729;DHT22;18309;43.658;1.312;2023-07-13T06:18:55;21.50;95.40
31729;DHT22;18309;43.658;1.312;2023-07-13T06:21:22;21.50;95.30
31729;DHT22;18309;43.658;1.312;2023-07-13T06:23:49;21.50;95.30
31729;DHT22;18309;43.658;1.312;2023-07-13T06:26:19;21.50;95.30
31729;DHT22;18309;43.658;1.312;2023-07-13T06:28:45;21.50;95.20
31729;DHT22;18309;43.658;1.312;2023-07-13T06:31:12;21.50;95.10
31729;DHT22;18309;43.658;1.312;2023-07-13T06:33:38;21.50;95.10
31729;DHT22;18309;43.658;1.312;2023-07-13T06:36:06;21.50;95.10
31729;DHT22;18309;43.658;1.312;2023-07-13T06:38:33;21.50;95.20
31729;DHT22;18309;43.658;1.312;2023-07-13T06:40:59;21.50;95.30
31729;DHT22;18309;43.658;1.312;2023-07-13T06:43:24;21.50;95.20
31729;DHT22;18309;43.658;1.312;2023-07-13T06:45:51;21.50;95.20
31729;DHT22;18309;43.658;1.312;2023-07-13T06:48:18;21.50;95.30
31729;DHT22;18309;43.658;1.312;2023-07-13T06:50:45;21.50;95.10
31729;DHT22;18309;43.658;1.312;2023-07-13T06:53:12;21.50;95.00
31729;DHT22;18309;43.658;1.312;2023-07-13T06:55:38;21.60;94.90
31729;DHT22;18309;43.658;1.312;2023-07-13T06:58:04;21.50;95.00
31729;DHT22;18309;43.658;1.312;2023-07-13T07:00:30;21.60;94.70
31729;DHT22;18309;43.658;1.312;2023-07-13T07:02:56;21.60;94.80
31729;DHT22;18309;43.658;1.312;2023-07-13T07:05:22;21.60;94.80
31729;DHT22;18309;43.658;1.312;2023-07-13T07:07:51;21.60;94.60
31729;DHT22;18309;43.658;1.312;2023-07-13T07:10:18;21.70;94.50
31729;DHT22;18309;43.658;1.312;2023-07-13T07:12:44;21.70;94.50
31729;DHT22;18309;43.658;1.312;2023-07-13T07:15:10;21.70;94.50
31729;DHT22;18309;43.658;1.312;2023-07-13T07:17:36;21.70;94.60
31729;DHT22;18309;43.658;1.312;2023-07-13T07:20:02;21.70;94.50
31729;DHT22;18309;43.658;1.312;2023-07-13T07:22:29;21.70;94.60
31729;DHT22;18309;43.658;1.312;2023-07-13T07:24:55;21.80;94.60
31729;DHT22;18309;43.658;1.312;2023-07-13T07:27:21;21.80;94.60
31729;DHT22;18309;43.658;1.312;2023-07-13T07:29:47;21.80;94.60
31729;DHT22;18309;43.658;1.312;2023-07-13T07:32:13;21.80;94.70
31729;DHT22;18309;43.658;1.312;2023-07-13T07:34:39;21.90;94.70
31729;DHT22;18309;43.658;1.312;2023-07-13T07:37:05;21.90;94.40
31729;DHT22;18309;43.658;1.312;2023-07-13T07:39:30;21.90;94.40
31729;DHT22;18309;43.658;1.312;2023-07-13T07:41:57;21.90;94.50
31729;DHT22;18309;43.658;1.312;2023-07-13T07:44:23;21.90;94.50
31729;DHT22;18309;43.658;1.312;2023-07-13T07:46:48;21.90;94.60
31729;DHT22;18309;43.658;1.312;2023-07-13T07:49:15;22.00;94.60
31729;DHT22;18309;43.658;1.312;2023-07-13T07:51:40;22.00;94.40
31729;DHT22;18309;43.658;1.312;2023-07-13T07:54:06;22.00;94.20
31729;DHT22;18309;43.658;1.312;2023-07-13T07:56:32;22.00;94.00
31729;DHT22;18309;43.658;1.312;2023-07-13T07:58:58;22.00;94.20
31729;DHT22;18309;43.658;1.312;2023-07-13T08:01:24;22.10;94.40
31729;DHT22;18309;43.658;1.312;2023-07-13T08:03:50;22.10;93.50
31729;DHT22;18309;43.658;1.312;2023-07-13T08:06:16;22.00;93.60
31729;DHT22;18309;43.658;1.312;2023-07-13T08:08:42;22.10;93.50
31729;DHT22;18309;43.658;1.312;2023-07-13T08:11:08;22.10;93.50
31729;DHT22;18309;43.658;1.312;2023-07-13T08:13:35;22.10;93.40
31729;DHT22;18309;43.658;1.312;2023-07-13T08:16:00;22.10;93.40
31729;DHT22;18309;43.658;1.312;2023-07-13T08:18:26;22.10;93.60
31729;DHT22;18309;43.658;1.312;2023-07-13T08:20:53;22.10;93.50
31729;DHT22;18309;43.658;1.312;2023-07-13T08:23:22;22.10;93.20
31729;DHT22;18309;43.658;1.312;2023-07-13T08:25:52;22.20;93.30
31729;DHT22;18309;43.658;1.312;2023-07-13T08:28:18;22.20;93.10
31729;DHT22;18309;43.658;1.312;2023-07-13T08:30:44;22.20;93.00
31729;DHT22;18309;43.658;1.312;2023-07-13T08:33:09;22.20;92.60
31729;DHT22;18309;43.658;1.312;2023-07-13T08:35:35;22.20;92.90
31729;DHT22;18309;43.658;1.312;2023-07-13T08:38:01;22.20;92.50
31729;DHT22;18309;43.658;1.312;2023-07-13T08:40:27;22.20;92.40
31729;DHT22;18309;43.658;1.312;2023-07-13T08:42:55;22.20;92.40
31729;DHT22;18309;43.658;1.312;2023-07-13T08:48:27;22.20;91.90
31729;DHT22;18309;43.658;1.312;2023-07-13T08:53:18;22.30;92.10
31729;DHT22;18309;43.658;1.312;2023-07-13T08:55:45;22.30;91.90
31729;DHT22;18309;43.658;1.312;2023-07-13T09:06:34;22.40;92.30
31729;DHT22;18309;43.658;1.312;2023-07-13T09:09:13;22.50;92.70
31729;DHT22;18309;43.658;1.312;2023-07-13T09:11:43;22.50;92.90
31729;DHT22;18309;43.658;1.312;2023-07-13T09:14:51;22.50;92.70
31729;DHT22;18309;43.658;1.312;2023-07-13T09:17:35;22.50;92.70
31729;DHT22;18309;43.658;1.312;2023-07-13T09:20:23;22.50;92.40
31729;DHT22;18309;43.658;1.312;2023-07-13T09:22:51;22.50;92.30
31729;DHT22;18309;43.658;1.312;2023-07-13T09:25:31;22.60;92.40
31729;DHT22;18309;43.658;1.312;2023-07-13T09:28:12;22.70;92.60
31729;DHT22;18309;43.658;1.312;2023-07-13T09:30:50;22.70;92.60
31729;DHT22;18309;43.658;1.312;2023-07-13T09:33:19;22.70;92.70
31729;DHT22;18309;43.658;1.312;2023-07-13T09:35:45;22.80;92.60
31729;DHT22;18309;43.658;1.312;2023-07-13T09:38:13;22.80;92.40
31729;DHT22;18309;43.658;1.312;2023-07-13T09:43:15;22.90;92.60
31729;DHT22;18309;43.658;1.312;2023-07-13T09:45:45;22.90;92.50
31729;DHT22;18309;43.658;1.312;2023-07-13T09:48:13;23.00;92.30
31729;DHT22;18309;43.658;1.312;2023-07-13T09:50:40;23.00;92.40
31729;DHT22;18309;43.658;1.312;2023-07-13T09:53:18;23.00;92.50
31729;DHT22;18309;43.658;1.312;2023-07-13T09:55:45;23.00;92.40
31729;DHT22;18309;43.658;1.312;2023-07-13T09:58:18;23.10;92.30
31729;DHT22;18309;43.658;1.312;2023-07-13T10:01:00;23.10;92.40
31729;DHT22;18309;43.658;1.312;2023-07-13T10:03:29;23.10;92.40
31729;DHT22;18309;43.658;1.312;2023-07-13T10:08:36;23.20;92.20
31729;DHT22;18309;43.658;1.312;2023-07-13T10:11:23;23.30;92.40
31729;DHT22;18309;43.658;1.312;2023-07-13T10:14:00;23.30;92.20
31729;DHT22;18309;43.658;1.312;2023-07-13T10:16:32;23.40;92.20
31729;DHT22;18309;43.658;1.312;2023-07-13T10:19:05;23.40;92.10
31729;DHT22;18309;43.658;1.312;2023-07-13T10:21:39;23.40;92.00
31729;DHT22;18309;43.658;1.312;2023-07-13T10:26:34;23.40;92.30
31729;DHT22;18309;43.658;1.312;2023-07-13T10:29:07;23.50;92.30
31729;DHT22;18309;43.658;1.312;2023-07-13T10:31:37;23.50;92.20
31729;DHT22;18309;43.658;1.312;2023-07-13T10:34:03;23.60;92.40
31729;DHT22;18309;43.658;1.312;2023-07-13T10:36:38;23.60;92.40
31729;DHT22;18309;43.658;1.312;2023-07-13T10:39:05;23.60;91.80
31729;DHT22;18309;43.658;1.312;2023-07-13T10:41:35;23.60;91.90
31729;DHT22;18309;43.658;1.312;2023-07-13T10:44:02;23.70;91.90
31729;DHT22;18309;43.658;1.312;2023-07-13T10:46:30;23.70;91.90
31729;DHT22;18309;43.658;1.312;2023-07-13T10:49:02;23.70;92.00
31729;DHT22;18309;43.658;1.312;2023-07-13T10:51:30;23.80;92.10
31729;DHT22;18309;43.658;1.312;2023-07-13T10:54:14;23.80;92.20
31729;DHT22;18309;43.658;1.312;2023-07-13T10:56:42;23.80;92.10
31729;DHT22;18309;43.658;1.312;2023-07-13T11:01:49;23.90;91.90
31729;DHT22;18309;43.658;1.312;2023-07-13T11:04:16;23.90;91.80
31729;DHT22;18309;43.658;1.312;2023-07-13T11:06:43;23.90;91.50
31729;DHT22;18309;43.658;1.312;2023-07-13T11:09:38;24.00;91.30
31729;DHT22;18309;43.658;1.312;2023-07-13T11:20:22;24.10;91.60
31729;DHT22;18309;43.658;1.312;2023-07-13T11:23:09;24.10;91.70
31729;DHT22;18309;43.658;1.312;2023-07-13T11:25:36;24.20;91.10
31729;DHT22;18309;43.658;1.312;2023-07-13T11:33:11;24.20;91.20
31729;DHT22;18309;43.658;1.312;2023-07-13T11:36:03;24.30;91.40
31729;DHT22;18309;43.658;1.312;2023-07-13T11:38:40;24.30;91.50
31729;DHT22;18309;43.658;1.312;2023-07-13T11:41:15;24.30;91.10
31729;DHT22;18309;43.658;1.312;2023-07-13T11:43:42;24.40;91.30
31729;DHT22;18309;43.658;1.312;2023-07-13T11:48:46;24.40;91.10
31729;DHT22;18309;43.658;1.312;2023-07-13T11:51:23;24.50;91.10
31729;DHT22;18309;43.658;1.312;2023-07-13T11:53:52;24.50;90.80
31729;DHT22;18309;43.658;1.312;2023-07-13T11:56:19;24.50;91.00
31729;DHT22;18309;43.658;1.312;2023-07-13T11:58:51;24.60;91.00
31729;DHT22;18309;43.658;1.312;2023-07-13T12:01:27;24.60;91.10
31729;DHT22;18309;43.658;1.312;2023-07-13T12:04:02;24.70;91.20
31729;DHT22;18309;43.658;1.312;2023-07-13T12:06:29;24.70;91.10
31729;DHT22;18309;43.658;1.312;2023-07-13T12:09:00;24.70;91.00
31729;DHT22;18309;43.658;1.312;2023-07-13T12:11:26;24.70;90.90
31729;DHT22;18309;43.658;1.312;2023-07-13T12:13:52;24.70;90.70
31729;DHT22;18309;43.658;1.312;2023-07-13T12:16:32;24.70;90.40
31729;DHT22;18309;43.658;1.312;2023-07-13T12:19:00;24.80;90.40
31729;DHT22;18309;43.658;1.312;2023-07-13T12:21:36;24.80;90.60
31729;DHT22;18309;43.658;1.312;2023-07-13T12:24:03;24.80;90.60
31729;DHT22;18309;43.658;1.312;2023-07-13T12:26:30;24.80;90.40
31729;DHT22;18309;43.658;1.312;2023-07-13T12:28:59;24.80;90.50
31729;DHT22;18309;43.658;1.312;2023-07-13T12:31:30;24.90;90.50
31729;DHT22;18309;43.658;1.312;2023-07-13T12:34:18;24.90;90.60
31729;DHT22;18309;43.658;1.312;2023-07-13T12:39:18;25.00;90.40
31729;DHT22;18309;43.658;1.312;2023-07-13T12:41:45;25.00;90.30
31729;DHT22;18309;43.658;1.312;2023-07-13T12:44:18;25.00;90.30
31729;DHT22;18309;43.658;1.312;2023-07-13T12:46:54;25.00;90.40
31729;DHT22;18309;43.658;1.312;2023-07-13T12:49:24;25.00;90.00
31729;DHT22;18309;43.658;1.312;2023-07-13T12:51:50;25.10;90.10
31729;DHT22;18309;43.658;1.312;2023-07-13T12:54:20;25.20;90.20
31729;DHT22;18309;43.658;1.312;2023-07-13T12:56:50;25.20;90.20
31729;DHT22;18309;43.658;1.312;2023-07-13T12:59:20;25.20;89.50
31729;DHT22;18309;43.658;1.312;2023-07-13T13:01:46;25.30;89.40
31729;DHT22;18309;43.658;1.312;2023-07-13T13:04:13;25.30;89.10
31729;DHT22;18309;43.658;1.312;2023-07-13T13:06:39;25.40;89.10
31729;DHT22;18309;43.658;1.312;2023-07-13T13:09:13;25.50;88.60
31729;DHT22;18309;43.658;1.312;2023-07-13T13:11:39;25.50;89.30
31729;DHT22;18309;43.658;1.312;2023-07-13T13:14:08;25.50;88.70
31729;DHT22;18309;43.658;1.312;2023-07-13T13:16:47;25.50;88.50
31729;DHT22;18309;43.658;1.312;2023-07-13T13:19:20;25.60;88.30
31729;DHT22;18309;43.658;1.312;2023-07-13T13:21:47;25.70;88.10
31729;DHT22;18309;43.658;1.312;2023-07-13T13:24:21;25.70;88.30
31729;DHT22;18309;43.658;1.312;2023-07-13T13:26:48;25.80;88.10
31729;DHT22;18309;43.658;1.312;2023-07-13T13:29:18;25.80;88.50
31729;DHT22;18309;43.658;1.312;2023-07-13T13:31:44;25.90;87.30
31729;DHT22;18309;43.658;1.312;2023-07-13T13:34:12;26.00;87.50
31729;DHT22;18309;43.658;1.312;2023-07-13T13:36:40;26.00;86.80
31729;DHT22;18309;43.658;1.312;2023-07-13T13:39:23;26.10;87.10
31729;DHT22;18309;43.658;1.312;2023-07-13T13:41:52;26.20;86.80
31729;DHT22;18309;43.658;1.312;2023-07-13T13:44:19;26.30;86.50
31729;DHT22;18309;43.658;1.312;2023-07-13T13:46:47;26.30;86.90
31729;DHT22;18309;43.658;1.312;2023-07-13T13:49:35;26.40;86.20
31729;DHT22;18309;43.658;1.312;2023-07-13T13:52:01;26.40;86.30
31729;DHT22;18309;43.658;1.312;2023-07-13T13:54:27;26.50;86.20
31729;DHT22;18309;43.658;1.312;2023-07-13T13:56:53;26.60;86.30
31729;DHT22;18309;43.658;1.312;2023-07-13T13:59:19;26.70;85.90
31729;DHT22;18309;43.658;1.312;2023-07-13T14:01:46;26.80;85.60
31729;DHT22;18309;43.658;1.312;2023-07-13T14:04:19;26.90;84.70
31729;DHT22;18309;43.658;1.312;2023-07-13T14:06:45;26.90;84.90
31729;DHT22;18309;43.658;1.312;2023-07-13T14:09:16;27.00;84.60
31729;DHT22;18309;43.658;1.312;2023-07-13T14:11:43;27.10;84.70
31729;DHT22;18309;43.658;1.312;2023-07-13T14:14:16;27.10;84.00
31729;DHT22;18309;43.658;1.312;2023-07-13T14:16:44;27.30;83.90
31729;DHT22;18309;43.658;1.312;2023-07-13T14:19:14;27.40;83.40
31729;DHT22;18309;43.658;1.312;2023-07-13T14:21:40;27.60;83.00
31729;DHT22;18309;43.658;1.312;2023-07-13T14:24:06;27.70;82.40
31729;DHT22;18309;43.658;1.312;2023-07-13T14:26:39;27.70;82.70
31729;DHT22;18309;43.658;1.312;2023-07-13T14:29:12;27.80;82.20
31729;DHT22;18309;43.658;1.312;2023-07-13T14:31:38;27.90;81.80
31729;DHT22;18309;43.658;1.312;2023-07-13T14:34:04;28.10;81.60
31729;DHT22;18309;43.658;1.312;2023-07-13T14:36:32;28.20;81.10
31729;DHT22;18309;43.658;1.312;2023-07-13T14:39:01;28.30;80.90
31729;DHT22;18309;43.658;1.312;2023-07-13T14:41:31;28.50;80.80
31729;DHT22;18309;43.658;1.312;2023-07-13T14:43:57;28.70;79.90
31729;DHT22;18309;43.658;1.312;2023-07-13T14:46:29;28.80;80.00
31729;DHT22;18309;43.658;1.312;2023-07-13T14:49:06;28.90;79.70
31729;DHT22;18309;43.658;1.312;2023-07-13T14:51:35;29.10;79.50
31729;DHT22;18309;43.658;1.312;2023-07-13T14:54:04;29.10;79.80
31729;DHT22;18309;43.658;1.312;2023-07-13T14:56:31;29.20;79.50
31729;DHT22;18309;43.658;1.312;2023-07-13T14:58:56;29.40;78.40
31729;DHT22;18309;43.658;1.312;2023-07-13T15:01:22;29.50;76.70
31729;DHT22;18309;43.658;1.312;2023-07-13T15:03:50;29.70;76.70
31729;DHT22;18309;43.658;1.312;2023-07-13T15:06:16;29.70;77.20
31729;DHT22;18309;43.658;1.312;2023-07-13T15:08:42;29.90;76.90
31729;DHT22;18309;43.658;1.312;2023-07-13T15:11:09;30.00;76.00
31729;DHT22;18309;43.658;1.312;2023-07-13T15:13:39;30.10;75.50
31729;DHT22;18309;43.658;1.312;2023-07-13T15:16:13;30.20;75.80
31729;DHT22;18309;43.658;1.312;2023-07-13T15:18:40;30.20;75.00
31729;DHT22;18309;43.658;1.312;2023-07-13T15:21:13;30.40;74.70
31729;DHT22;18309;43.658;1.312;2023-07-13T15:23:40;30.40;74.40
31729;DHT22;18309;43.658;1.312;2023-07-13T15:26:14;30.40;73.70
31729;DHT22;18309;43.658;1.312;2023-07-13T15:28:41;30.60;74.50
31729;DHT22;18309;43.658;1.312;2023-07-13T15:31:25;30.70;74.30
31729;DHT22;18309;43.658;1.312;2023-07-13T15:33:55;30.70;73.10
31729;DHT22;18309;43.658;1.312;2023-07-13T15:36:23;30.70;73.00
31729;DHT22;18309;43.658;1.312;2023-07-13T15:38:50;30.80;72.20
31729;DHT22;18309;43.658;1.312;2023-07-13T15:43:48;30.80;71.60
31729;DHT22;18309;43.658;1.312;2023-07-13T15:46:16;30.80;71.10
31729;DHT22;18309;43.658;1.312;2023-07-13T15:48:41;30.80;70.90
31729;DHT22;18309;43.658;1.312;2023-07-13T15:51:14;30.80;71.60
31729;DHT22;18309;43.658;1.312;2023-07-13T15:53:40;30.90;72.10
31729;DHT22;18309;43.658;1.312;2023-07-13T15:56:21;31.00;71.20
31729;DHT22;18309;43.658;1.312;2023-07-13T15:58:48;31.00;71.00
31729;DHT22;18309;43.658;1.312;2023-07-13T16:01:14;31.20;71.00
31729;DHT22;18309;43.658;1.312;2023-07-13T16:03:41;31.20;70.70
31729;DHT22;18309;43.658;1.312;2023-07-13T16:08:44;31.40;70.30
31729;DHT22;18309;43.658;1.312;2023-07-13T16:11:21;31.50;68.40
31729;DHT22;18309;43.658;1.312;2023-07-13T16:13:48;31.70;68.80
31729;DHT22;18309;43.658;1.312;2023-07-13T16:16:21;31.80;68.20
31729;DHT22;18309;43.658;1.312;2023-07-13T16:18:53;31.90;66.60
31729;DHT22;18309;43.658;1.312;2023-07-13T16:21:23;32.10;65.40
31729;DHT22;18309;43.658;1.312;2023-07-13T16:23:50;32.10;65.60
31729;DHT22;18309;43.658;1.312;2023-07-13T16:26:29;32.20;65.10
31729;DHT22;18309;43.658;1.312;2023-07-13T16:31:35;32.40;64.90